EmailTwitter


Surface observations / Quebec / CYND

Regions: Quebec | Canada | USA | Europe | France | UK | Elsewhere
Station
Display
Info & Location for CYND | Help decoding METAR

Weather Conditions observed on 2019/02/15 at 21:00 UTC at OTTAWA GATINEAU, QB (CYND)

Sky conditions: partly cloudy.

Temperature: 4.0 Celsius.

Dewpoint: -3.0 Celsius.

Relative Humidity: 60%

Windchill Factor: -1.

Windchill Factor (Gusts): -3.

Winds: Southwest at 30 km/h or 16 knots.

Gust: 48 km/h or 26 knots.

Mean Sea level Pressure: 99.69 kilopascals.

Altimeter Setting (QNH): 99.66 kilopascals or 29.43 inches of mercury.

Horizontal visibility: 15.00 statute miles or 24.00 kilometers.

Height of the Ceiling: 1372 metres ( 4500 feet ).

Coded METAR:

CYND 152100Z 24016G26KT 15SM BKN045 04/M03 A2943 RMK SC6 SLP969=